sensor_id;sensor_type;location;lat;lon;timestamp;P1;durP1;ratioP1;P2;durP2;ratioP2
31754;SDS011;18325;52.018;4.726;2022-08-19T00:06:12;4.88;;;4.10;;
31754;SDS011;18325;52.018;4.726;2022-08-19T00:08:42;5.25;;;4.00;;
31754;SDS011;18325;52.018;4.726;2022-08-19T00:35:21;8.70;;;5.57;;
31754;SDS011;18325;52.018;4.726;2022-08-19T01:11:54;10.95;;;7.30;;
31754;SDS011;18325;52.018;4.726;2022-08-19T01:14:20;9.27;;;6.57;;
31754;SDS011;18325;52.018;4.726;2022-08-19T01:16:57;11.63;;;6.97;;
31754;SDS011;18325;52.018;4.726;2022-08-19T01:25:59;12.65;;;7.20;;
31754;SDS011;18325;52.018;4.726;2022-08-19T01:28:26;11.85;;;7.07;;
31754;SDS011;18325;52.018;4.726;2022-08-19T01:45:37;12.00;;;7.50;;
31754;SDS011;18325;52.018;4.726;2022-08-19T02:35:41;8.75;;;5.85;;
31754;SDS011;18325;52.018;4.726;2022-08-19T02:48:25;8.70;;;6.57;;
31754;SDS011;18325;52.018;4.726;2022-08-19T02:50:53;9.85;;;6.20;;
31754;SDS011;18325;52.018;4.726;2022-08-19T02:53:21;8.23;;;5.85;;
31754;SDS011;18325;52.018;4.726;2022-08-19T02:55:49;9.02;;;6.30;;
31754;SDS011;18325;52.018;4.726;2022-08-19T02:58:16;10.07;;;7.25;;
31754;SDS011;18325;52.018;4.726;2022-08-19T03:00:43;14.43;;;9.20;;
31754;SDS011;18325;52.018;4.726;2022-08-19T03:03:11;12.85;;;8.45;;
31754;SDS011;18325;52.018;4.726;2022-08-19T03:05:38;16.23;;;9.18;;
31754;SDS011;18325;52.018;4.726;2022-08-19T03:08:06;14.30;;;9.25;;
31754;SDS011;18325;52.018;4.726;2022-08-19T03:10:39;13.30;;;8.88;;
31754;SDS011;18325;52.018;4.726;2022-08-19T03:13:07;14.77;;;8.70;;
31754;SDS011;18325;52.018;4.726;2022-08-19T03:15:33;14.98;;;9.13;;
31754;SDS011;18325;52.018;4.726;2022-08-19T03:18:00;16.08;;;9.18;;
31754;SDS011;18325;52.018;4.726;2022-08-19T03:20:26;16.45;;;9.48;;
31754;SDS011;18325;52.018;4.726;2022-08-19T03:25:46;17.90;;;10.57;;
31754;SDS011;18325;52.018;4.726;2022-08-19T03:28:15;16.10;;;10.27;;
31754;SDS011;18325;52.018;4.726;2022-08-19T03:36:14;18.63;;;10.98;;
31754;SDS011;18325;52.018;4.726;2022-08-19T03:38:46;15.75;;;10.05;;
31754;SDS011;18325;52.018;4.726;2022-08-19T03:44:06;16.27;;;10.07;;
31754;SDS011;18325;52.018;4.726;2022-08-19T03:46:34;16.92;;;10.18;;
31754;SDS011;18325;52.018;4.726;2022-08-19T03:49:10;15.55;;;10.57;;
31754;SDS011;18325;52.018;4.726;2022-08-19T03:51:44;18.50;;;11.40;;
31754;SDS011;18325;52.018;4.726;2022-08-19T03:54:13;14.55;;;9.55;;
31754;SDS011;18325;52.018;4.726;2022-08-19T03:57:16;19.17;;;10.45;;
31754;SDS011;18325;52.018;4.726;2022-08-19T03:59:43;20.85;;;11.30;;
31754;SDS011;18325;52.018;4.726;2022-08-19T04:02:20;20.00;;;11.50;;
31754;SDS011;18325;52.018;4.726;2022-08-19T04:07:49;20.48;;;12.32;;
31754;SDS011;18325;52.018;4.726;2022-08-19T04:10:18;22.60;;;11.55;;
31754;SDS011;18325;52.018;4.726;2022-08-19T04:12:45;22.63;;;12.75;;
31754;SDS011;18325;52.018;4.726;2022-08-19T04:15:12;26.08;;;13.90;;
31754;SDS011;18325;52.018;4.726;2022-08-19T04:17:38;22.02;;;12.27;;
31754;SDS011;18325;52.018;4.726;2022-08-19T04:20:16;23.33;;;13.50;;
31754;SDS011;18325;52.018;4.726;2022-08-19T04:22:42;26.88;;;14.93;;
31754;SDS011;18325;52.018;4.726;2022-08-19T04:48:39;35.47;;;17.55;;
31754;SDS011;18325;52.018;4.726;2022-08-19T04:51:07;39.70;;;18.90;;
31754;SDS011;18325;52.018;4.726;2022-08-19T04:53:35;34.60;;;18.92;;
31754;SDS011;18325;52.018;4.726;2022-08-19T04:56:04;41.25;;;20.25;;
31754;SDS011;18325;52.018;4.726;2022-08-19T04:58:33;40.92;;;21.60;;
31754;SDS011;18325;52.018;4.726;2022-08-19T05:01:00;41.60;;;21.35;;
31754;SDS011;18325;52.018;4.726;2022-08-19T05:03:27;46.03;;;20.45;;
31754;SDS011;18325;52.018;4.726;2022-08-19T05:05:59;41.72;;;20.40;;
31754;SDS011;18325;52.018;4.726;2022-08-19T05:08:32;40.03;;;20.88;;
31754;SDS011;18325;52.018;4.726;2022-08-19T05:10:59;40.10;;;20.00;;
31754;SDS011;18325;52.018;4.726;2022-08-19T05:16:22;45.55;;;19.60;;
31754;SDS011;18325;52.018;4.726;2022-08-19T05:22:00;49.85;;;22.13;;
31754;SDS011;18325;52.018;4.726;2022-08-19T05:24:44;43.47;;;20.20;;
31754;SDS011;18325;52.018;4.726;2022-08-19T05:27:41;49.22;;;23.13;;
31754;SDS011;18325;52.018;4.726;2022-08-19T05:33:22;50.95;;;22.35;;
31754;SDS011;18325;52.018;4.726;2022-08-19T05:36:15;47.80;;;22.23;;
31754;SDS011;18325;52.018;4.726;2022-08-19T05:41:32;47.15;;;22.70;;
31754;SDS011;18325;52.018;4.726;2022-08-19T05:44:00;53.33;;;22.88;;
31754;SDS011;18325;52.018;4.726;2022-08-19T05:46:31;54.00;;;23.23;;
31754;SDS011;18325;52.018;4.726;2022-08-19T05:48:57;50.38;;;23.40;;
31754;SDS011;18325;52.018;4.726;2022-08-19T05:51:24;52.05;;;23.20;;
31754;SDS011;18325;52.018;4.726;2022-08-19T05:53:51;45.95;;;20.60;;
31754;SDS011;18325;52.018;4.726;2022-08-19T05:56:19;45.60;;;21.67;;
31754;SDS011;18325;52.018;4.726;2022-08-19T05:59:18;42.47;;;21.08;;
31754;SDS011;18325;52.018;4.726;2022-08-19T06:01:47;45.92;;;20.45;;
31754;SDS011;18325;52.018;4.726;2022-08-19T06:08:01;40.80;;;20.73;;
31754;SDS011;18325;52.018;4.726;2022-08-19T06:10:39;45.88;;;22.23;;
31754;SDS011;18325;52.018;4.726;2022-08-19T06:13:07;45.92;;;21.05;;
31754;SDS011;18325;52.018;4.726;2022-08-19T06:15:49;42.65;;;21.60;;
31754;SDS011;18325;52.018;4.726;2022-08-19T06:18:15;46.30;;;21.80;;
31754;SDS011;18325;52.018;4.726;2022-08-19T06:23:39;50.15;;;24.23;;
31754;SDS011;18325;52.018;4.726;2022-08-19T06:26:12;43.38;;;20.92;;
31754;SDS011;18325;52.018;4.726;2022-08-19T06:31:44;42.78;;;21.70;;
31754;SDS011;18325;52.018;4.726;2022-08-19T06:34:39;43.72;;;20.95;;
31754;SDS011;18325;52.018;4.726;2022-08-19T06:37:06;47.20;;;21.40;;
31754;SDS011;18325;52.018;4.726;2022-08-19T06:39:34;45.65;;;20.63;;
31754;SDS011;18325;52.018;4.726;2022-08-19T06:42:03;48.75;;;21.83;;
31754;SDS011;18325;52.018;4.726;2022-08-19T06:44:35;49.83;;;21.35;;
31754;SDS011;18325;52.018;4.726;2022-08-19T06:47:02;47.20;;;21.33;;
31754;SDS011;18325;52.018;4.726;2022-08-19T06:49:30;48.25;;;23.73;;
31754;SDS011;18325;52.018;4.726;2022-08-19T06:51:57;46.20;;;20.58;;
31754;SDS011;18325;52.018;4.726;2022-08-19T06:54:42;40.88;;;20.75;;
31754;SDS011;18325;52.018;4.726;2022-08-19T06:57:09;48.30;;;22.23;;
31754;SDS011;18325;52.018;4.726;2022-08-19T06:59:48;43.45;;;21.55;;
31754;SDS011;18325;52.018;4.726;2022-08-19T07:02:19;41.30;;;21.40;;
31754;SDS011;18325;52.018;4.726;2022-08-19T07:14:30;35.03;;;19.95;;
31754;SDS011;18325;52.018;4.726;2022-08-19T07:16:58;40.42;;;20.17;;
31754;SDS011;18325;52.018;4.726;2022-08-19T07:19:25;36.10;;;20.20;;
31754;SDS011;18325;52.018;4.726;2022-08-19T07:21:53;36.33;;;18.40;;
31754;SDS011;18325;52.018;4.726;2022-08-19T07:24:21;38.63;;;21.38;;
31754;SDS011;18325;52.018;4.726;2022-08-19T07:26:50;35.22;;;18.20;;
31754;SDS011;18325;52.018;4.726;2022-08-19T07:32:53;31.52;;;17.75;;
31754;SDS011;18325;52.018;4.726;2022-08-19T07:35:49;32.65;;;16.83;;
31754;SDS011;18325;52.018;4.726;2022-08-19T07:38:22;28.70;;;16.50;;
31754;SDS011;18325;52.018;4.726;2022-08-19T07:41:10;33.47;;;17.25;;
31754;SDS011;18325;52.018;4.726;2022-08-19T07:43:52;31.13;;;17.08;;
31754;SDS011;18325;52.018;4.726;2022-08-19T07:49:12;29.45;;;16.10;;
31754;SDS011;18325;52.018;4.726;2022-08-19T07:51:42;31.73;;;17.58;;
31754;SDS011;18325;52.018;4.726;2022-08-19T07:57:35;30.77;;;18.50;;
31754;SDS011;18325;52.018;4.726;2022-08-19T08:00:06;32.25;;;17.33;;
31754;SDS011;18325;52.018;4.726;2022-08-19T08:02:47;37.33;;;19.73;;
31754;SDS011;18325;52.018;4.726;2022-08-19T08:08:37;31.45;;;17.73;;
31754;SDS011;18325;52.018;4.726;2022-08-19T08:11:37;30.92;;;16.95;;
31754;SDS011;18325;52.018;4.726;2022-08-19T08:14:38;25.13;;;16.13;;
31754;SDS011;18325;52.018;4.726;2022-08-19T08:17:15;31.92;;;16.83;;
31754;SDS011;18325;52.018;4.726;2022-08-19T08:19:44;25.13;;;17.08;;
31754;SDS011;18325;52.018;4.726;2022-08-19T08:22:13;25.83;;;16.38;;
31754;SDS011;18325;52.018;4.726;2022-08-19T08:25:11;31.67;;;16.88;;
31754;SDS011;18325;52.018;4.726;2022-08-19T08:27:39;25.23;;;15.45;;
31754;SDS011;18325;52.018;4.726;2022-08-19T08:30:07;29.33;;;16.05;;
31754;SDS011;18325;52.018;4.726;2022-08-19T08:32:34;26.45;;;15.23;;
31754;SDS011;18325;52.018;4.726;2022-08-19T08:35:02;26.35;;;16.40;;
31754;SDS011;18325;52.018;4.726;2022-08-19T08:37:29;29.98;;;17.30;;
31754;SDS011;18325;52.018;4.726;2022-08-19T08:39:56;41.20;;;23.55;;
31754;SDS011;18325;52.018;4.726;2022-08-19T08:42:27;35.88;;;19.45;;
31754;SDS011;18325;52.018;4.726;2022-08-19T08:44:56;30.10;;;17.73;;
31754;SDS011;18325;52.018;4.726;2022-08-19T08:47:35;30.85;;;18.10;;
31754;SDS011;18325;52.018;4.726;2022-08-19T08:50:04;29.15;;;17.42;;
31754;SDS011;18325;52.018;4.726;2022-08-19T08:52:33;38.10;;;19.15;;
31754;SDS011;18325;52.018;4.726;2022-08-19T08:55:05;29.15;;;18.95;;
31754;SDS011;18325;52.018;4.726;2022-08-19T08:57:36;30.40;;;17.25;;
31754;SDS011;18325;52.018;4.726;2022-08-19T09:00:06;30.88;;;17.65;;
31754;SDS011;18325;52.018;4.726;2022-08-19T09:02:35;30.45;;;17.95;;
31754;SDS011;18325;52.018;4.726;2022-08-19T09:05:01;35.83;;;17.10;;
31754;SDS011;18325;52.018;4.726;2022-08-19T09:07:32;27.90;;;16.67;;
31754;SDS011;18325;52.018;4.726;2022-08-19T09:10:18;26.50;;;15.88;;
31754;SDS011;18325;52.018;4.726;2022-08-19T09:12:52;28.08;;;15.25;;
31754;SDS011;18325;52.018;4.726;2022-08-19T09:15:28;25.42;;;16.48;;
31754;SDS011;18325;52.018;4.726;2022-08-19T09:18:19;24.90;;;16.27;;
31754;SDS011;18325;52.018;4.726;2022-08-19T09:21:07;21.83;;;15.15;;
31754;SDS011;18325;52.018;4.726;2022-08-19T09:23:34;28.40;;;16.00;;
31754;SDS011;18325;52.018;4.726;2022-08-19T09:26:01;26.90;;;15.52;;
31754;SDS011;18325;52.018;4.726;2022-08-19T09:28:29;20.55;;;13.77;;
31754;SDS011;18325;52.018;4.726;2022-08-19T09:30:56;20.52;;;14.40;;
31754;SDS011;18325;52.018;4.726;2022-08-19T09:33:24;25.42;;;15.50;;
31754;SDS011;18325;52.018;4.726;2022-08-19T09:36:00;21.77;;;14.20;;
31754;SDS011;18325;52.018;4.726;2022-08-19T09:38:35;23.90;;;15.27;;
31754;SDS011;18325;52.018;4.726;2022-08-19T09:41:06;23.02;;;15.45;;
31754;SDS011;18325;52.018;4.726;2022-08-19T09:43:35;21.23;;;14.07;;
31754;SDS011;18325;52.018;4.726;2022-08-19T09:46:19;26.25;;;14.43;;
31754;SDS011;18325;52.018;4.726;2022-08-19T10:02:24;18.38;;;11.70;;
31754;SDS011;18325;52.018;4.726;2022-08-19T10:12:32;19.88;;;12.13;;
31754;SDS011;18325;52.018;4.726;2022-08-19T10:14:59;16.15;;;11.38;;
31754;SDS011;18325;52.018;4.726;2022-08-19T10:17:27;14.32;;;10.95;;
31754;SDS011;18325;52.018;4.726;2022-08-19T10:20:00;15.02;;;10.80;;
31754;SDS011;18325;52.018;4.726;2022-08-19T10:22:29;20.52;;;10.98;;
31754;SDS011;18325;52.018;4.726;2022-08-19T10:24:56;17.30;;;10.50;;
31754;SDS011;18325;52.018;4.726;2022-08-19T10:27:26;18.85;;;12.05;;
31754;SDS011;18325;52.018;4.726;2022-08-19T10:29:52;16.00;;;10.60;;
31754;SDS011;18325;52.018;4.726;2022-08-19T10:32:36;12.27;;;8.73;;
31754;SDS011;18325;52.018;4.726;2022-08-19T10:35:03;16.30;;;10.45;;
31754;SDS011;18325;52.018;4.726;2022-08-19T10:37:32;20.80;;;9.93;;
31754;SDS011;18325;52.018;4.726;2022-08-19T10:39:59;12.88;;;9.50;;
31754;SDS011;18325;52.018;4.726;2022-08-19T10:42:26;15.38;;;9.55;;
31754;SDS011;18325;52.018;4.726;2022-08-19T10:44:53;15.38;;;9.15;;
31754;SDS011;18325;52.018;4.726;2022-08-19T10:47:20;13.48;;;8.85;;
31754;SDS011;18325;52.018;4.726;2022-08-19T10:49:49;13.38;;;8.52;;
31754;SDS011;18325;52.018;4.726;2022-08-19T10:59:03;10.48;;;7.22;;
31754;SDS011;18325;52.018;4.726;2022-08-19T11:01:31;9.90;;;6.63;;
31754;SDS011;18325;52.018;4.726;2022-08-19T11:03:59;10.57;;;7.22;;
31754;SDS011;18325;52.018;4.726;2022-08-19T11:28:19;6.68;;;4.45;;
31754;SDS011;18325;52.018;4.726;2022-08-19T11:32:39;5.38;;;3.90;;
31754;SDS011;18325;52.018;4.726;2022-08-19T11:35:19;7.50;;;3.70;;
31754;SDS011;18325;52.018;4.726;2022-08-19T11:37:48;6.78;;;2.70;;
31754;SDS011;18325;52.018;4.726;2022-08-19T11:40:14;4.70;;;2.63;;
31754;SDS011;18325;52.018;4.726;2022-08-19T11:42:47;5.22;;;2.53;;
31754;SDS011;18325;52.018;4.726;2022-08-19T11:58:38;4.95;;;2.42;;
31754;SDS011;18325;52.018;4.726;2022-08-19T12:01:07;3.67;;;2.78;;
31754;SDS011;18325;52.018;4.726;2022-08-19T12:07:07;2.83;;;2.50;;
31754;SDS011;18325;52.018;4.726;2022-08-19T12:09:42;3.00;;;2.17;;
31754;SDS011;18325;52.018;4.726;2022-08-19T12:15:44;6.22;;;2.78;;
31754;SDS011;18325;52.018;4.726;2022-08-19T12:18:29;4.75;;;2.10;;
31754;SDS011;18325;52.018;4.726;2022-08-19T12:20:56;5.00;;;2.15;;
31754;SDS011;18325;52.018;4.726;2022-08-19T12:27:00;2.22;;;1.88;;
31754;SDS011;18325;52.018;4.726;2022-08-19T12:29:28;4.15;;;2.53;;
31754;SDS011;18325;52.018;4.726;2022-08-19T12:31:57;2.78;;;1.88;;
31754;SDS011;18325;52.018;4.726;2022-08-19T12:34:26;4.47;;;1.85;;
31754;SDS011;18325;52.018;4.726;2022-08-19T12:36:58;4.78;;;1.70;;
31754;SDS011;18325;52.018;4.726;2022-08-19T12:39:35;3.70;;;1.95;;
31754;SDS011;18325;52.018;4.726;2022-08-19T12:45:25;2.22;;;1.67;;
31754;SDS011;18325;52.018;4.726;2022-08-19T12:55:18;3.30;;;1.75;;
31754;SDS011;18325;52.018;4.726;2022-08-19T12:57:59;3.30;;;1.70;;
31754;SDS011;18325;52.018;4.726;2022-08-19T13:00:27;7.93;;;4.90;;
31754;SDS011;18325;52.018;4.726;2022-08-19T13:06:35;3.95;;;2.30;;
31754;SDS011;18325;52.018;4.726;2022-08-19T13:09:02;13.02;;;8.75;;
31754;SDS011;18325;52.018;4.726;2022-08-19T13:14:48;5.35;;;2.70;;
31754;SDS011;18325;52.018;4.726;2022-08-19T13:17:28;5.38;;;3.28;;
31754;SDS011;18325;52.018;4.726;2022-08-19T13:19:54;3.85;;;2.60;;
31754;SDS011;18325;52.018;4.726;2022-08-19T13:22:20;3.13;;;2.83;;
31754;SDS011;18325;52.018;4.726;2022-08-19T13:24:48;5.05;;;2.97;;
31754;SDS011;18325;52.018;4.726;2022-08-19T13:27:15;4.53;;;3.08;;
31754;SDS011;18325;52.018;4.726;2022-08-19T13:29:42;6.63;;;3.95;;
31754;SDS011;18325;52.018;4.726;2022-08-19T13:35:59;6.68;;;3.75;;
31754;SDS011;18325;52.018;4.726;2022-08-19T13:38:27;5.03;;;3.13;;
31754;SDS011;18325;52.018;4.726;2022-08-19T13:40:55;3.33;;;2.90;;
31754;SDS011;18325;52.018;4.726;2022-08-19T13:43:25;4.57;;;3.72;;
31754;SDS011;18325;52.018;4.726;2022-08-19T13:46:08;3.80;;;3.17;;
31754;SDS011;18325;52.018;4.726;2022-08-19T13:48:50;5.07;;;3.70;;
31754;SDS011;18325;52.018;4.726;2022-08-19T13:54:30;6.15;;;3.90;;
31754;SDS011;18325;52.018;4.726;2022-08-19T14:03:20;7.03;;;4.85;;
31754;SDS011;18325;52.018;4.726;2022-08-19T14:06:00;8.20;;;4.88;;
31754;SDS011;18325;52.018;4.726;2022-08-19T14:21:29;7.57;;;4.38;;
31754;SDS011;18325;52.018;4.726;2022-08-19T14:24:25;9.88;;;4.90;;
31754;SDS011;18325;52.018;4.726;2022-08-19T14:26:54;8.48;;;4.82;;
31754;SDS011;18325;52.018;4.726;2022-08-19T14:29:20;9.95;;;5.65;;
31754;SDS011;18325;52.018;4.726;2022-08-19T14:33:12;9.57;;;4.60;;
31754;SDS011;18325;52.018;4.726;2022-08-19T14:34:40;6.72;;;4.38;;
31754;SDS011;18325;52.018;4.726;2022-08-19T14:37:09;6.55;;;4.78;;
31754;SDS011;18325;52.018;4.726;2022-08-19T14:42:23;6.90;;;4.60;;
31754;SDS011;18325;52.018;4.726;2022-08-19T14:44:50;8.30;;;4.85;;
31754;SDS011;18325;52.018;4.726;2022-08-19T14:47:17;7.38;;;4.20;;
31754;SDS011;18325;52.018;4.726;2022-08-19T14:49:46;7.28;;;3.67;;
31754;SDS011;18325;52.018;4.726;2022-08-19T14:55:45;7.72;;;4.15;;
31754;SDS011;18325;52.018;4.726;2022-08-19T14:58:12;5.40;;;3.58;;
31754;SDS011;18325;52.018;4.726;2022-08-19T15:00:39;6.47;;;4.03;;
31754;SDS011;18325;52.018;4.726;2022-08-19T15:03:09;9.05;;;4.63;;
31754;SDS011;18325;52.018;4.726;2022-08-19T15:05:38;6.38;;;3.75;;
31754;SDS011;18325;52.018;4.726;2022-08-19T15:14:51;5.55;;;3.40;;
31754;SDS011;18325;52.018;4.726;2022-08-19T15:17:24;4.72;;;2.80;;
31754;SDS011;18325;52.018;4.726;2022-08-19T15:20:04;3.65;;;2.42;;
31754;SDS011;18325;52.018;4.726;2022-08-19T15:22:47;3.38;;;2.20;;
31754;SDS011;18325;52.018;4.726;2022-08-19T15:26:29;2.58;;;1.73;;
31754;SDS011;18325;52.018;4.726;2022-08-19T15:28:53;2.55;;;1.63;;
31754;SDS011;18325;52.018;4.726;2022-08-19T15:31:22;4.65;;;2.42;;
31754;SDS011;18325;52.018;4.726;2022-08-19T15:40:38;4.57;;;3.28;;
31754;SDS011;18325;52.018;4.726;2022-08-19T15:43:08;10.90;;;4.15;;
31754;SDS011;18325;52.018;4.726;2022-08-19T15:45:36;7.00;;;4.82;;
31754;SDS011;18325;52.018;4.726;2022-08-19T15:48:15;7.82;;;5.18;;
31754;SDS011;18325;52.018;4.726;2022-08-19T15:50:42;7.18;;;5.32;;
31754;SDS011;18325;52.018;4.726;2022-08-19T15:53:09;11.50;;;6.70;;
31754;SDS011;18325;52.018;4.726;2022-08-19T15:55:41;7.57;;;5.38;;
31754;SDS011;18325;52.018;4.726;2022-08-19T15:58:10;9.45;;;7.00;;
31754;SDS011;18325;52.018;4.726;2022-08-19T16:00:58;7.80;;;5.90;;
31754;SDS011;18325;52.018;4.726;2022-08-19T16:03:44;6.32;;;4.60;;
31754;SDS011;18325;52.018;4.726;2022-08-19T16:06:28;3.50;;;3.13;;
31754;SDS011;18325;52.018;4.726;2022-08-19T16:08:56;7.30;;;5.40;;
31754;SDS011;18325;52.018;4.726;2022-08-19T16:11:24;5.57;;;3.92;;
31754;SDS011;18325;52.018;4.726;2022-08-19T16:13:53;3.58;;;2.92;;
31754;SDS011;18325;52.018;4.726;2022-08-19T16:16:23;5.10;;;2.63;;
31754;SDS011;18325;52.018;4.726;2022-08-19T16:18:53;4.90;;;2.50;;
31754;SDS011;18325;52.018;4.726;2022-08-19T16:21:23;81.63;;;44.58;;
31754;SDS011;18325;52.018;4.726;2022-08-19T16:23:57;10.43;;;7.38;;
31754;SDS011;18325;52.018;4.726;2022-08-19T16:26:25;5.00;;;3.05;;
31754;SDS011;18325;52.018;4.726;2022-08-19T16:28:55;3.25;;;2.42;;
31754;SDS011;18325;52.018;4.726;2022-08-19T16:31:23;4.13;;;3.83;;
31754;SDS011;18325;52.018;4.726;2022-08-19T16:33:50;16.73;;;14.73;;
31754;SDS011;18325;52.018;4.726;2022-08-19T16:36:17;3.75;;;3.30;;
31754;SDS011;18325;52.018;4.726;2022-08-19T16:38:44;3.22;;;1.85;;
31754;SDS011;18325;52.018;4.726;2022-08-19T16:41:24;1.90;;;1.67;;
31754;SDS011;18325;52.018;4.726;2022-08-19T16:44:00;2.35;;;1.30;;
31754;SDS011;18325;52.018;4.726;2022-08-19T16:53:00;1.20;;;1.10;;
31754;SDS011;18325;52.018;4.726;2022-08-19T16:55:27;2.67;;;1.30;;
31754;SDS011;18325;52.018;4.726;2022-08-19T16:57:54;3.95;;;1.30;;
31754;SDS011;18325;52.018;4.726;2022-08-19T17:00:21;12.18;;;7.72;;
31754;SDS011;18325;52.018;4.726;2022-08-19T17:02:48;7.97;;;5.20;;
31754;SDS011;18325;52.018;4.726;2022-08-19T17:05:15;3.72;;;2.50;;
31754;SDS011;18325;52.018;4.726;2022-08-19T17:07:44;2.58;;;2.20;;
31754;SDS011;18325;52.018;4.726;2022-08-19T17:10:10;6.68;;;2.55;;
31754;SDS011;18325;52.018;4.726;2022-08-19T17:12:37;1.92;;;1.40;;
31754;SDS011;18325;52.018;4.726;2022-08-19T17:15:05;1.75;;;1.40;;
31754;SDS011;18325;52.018;4.726;2022-08-19T17:17:33;1.80;;;1.13;;
31754;SDS011;18325;52.018;4.726;2022-08-19T17:20:01;2.78;;;1.38;;
31754;SDS011;18325;52.018;4.726;2022-08-19T17:22:28;1.38;;;1.23;;
31754;SDS011;18325;52.018;4.726;2022-08-19T17:24:56;4.03;;;1.70;;
31754;SDS011;18325;52.018;4.726;2022-08-19T17:27:26;1.50;;;1.40;;
31754;SDS011;18325;52.018;4.726;2022-08-19T17:30:07;2.97;;;1.58;;
31754;SDS011;18325;52.018;4.726;2022-08-19T17:32:34;2.17;;;1.05;;
31754;SDS011;18325;52.018;4.726;2022-08-19T17:35:00;4.85;;;1.63;;
31754;SDS011;18325;52.018;4.726;2022-08-19T17:37:28;2.17;;;1.40;;
31754;SDS011;18325;52.018;4.726;2022-08-19T17:39:56;1.95;;;1.30;;
31754;SDS011;18325;52.018;4.726;2022-08-19T17:42:23;52.10;;;31.40;;
31754;SDS011;18325;52.018;4.726;2022-08-19T17:44:49;5.80;;;3.85;;
31754;SDS011;18325;52.018;4.726;2022-08-19T17:47:22;3.05;;;1.80;;
31754;SDS011;18325;52.018;4.726;2022-08-19T17:49:48;2.42;;;1.23;;
31754;SDS011;18325;52.018;4.726;2022-08-19T17:52:15;3.47;;;2.47;;
31754;SDS011;18325;52.018;4.726;2022-08-19T17:54:50;6.72;;;4.63;;
31754;SDS011;18325;52.018;4.726;2022-08-19T17:57:18;3.00;;;1.92;;
31754;SDS011;18325;52.018;4.726;2022-08-19T17:59:45;3.28;;;1.80;;
31754;SDS011;18325;52.018;4.726;2022-08-19T18:05:42;1.95;;;1.20;;
31754;SDS011;18325;52.018;4.726;2022-08-19T18:08:09;4.28;;;1.77;;
31754;SDS011;18325;52.018;4.726;2022-08-19T18:21:45;2.90;;;2.40;;
31754;SDS011;18325;52.018;4.726;2022-08-19T18:24:12;2.88;;;2.53;;
31754;SDS011;18325;52.018;4.726;2022-08-19T18:26:39;2.75;;;2.50;;
31754;SDS011;18325;52.018;4.726;2022-08-19T18:36:08;3.90;;;2.67;;
31754;SDS011;18325;52.018;4.726;2022-08-19T18:41:48;3.67;;;2.95;;
31754;SDS011;18325;52.018;4.726;2022-08-19T18:44:33;4.65;;;2.83;;
31754;SDS011;18325;52.018;4.726;2022-08-19T18:47:20;4.53;;;2.95;;
31754;SDS011;18325;52.018;4.726;2022-08-19T18:50:05;3.38;;;2.90;;
31754;SDS011;18325;52.018;4.726;2022-08-19T18:52:33;3.72;;;2.75;;
31754;SDS011;18325;52.018;4.726;2022-08-19T18:58:23;3.30;;;2.63;;
31754;SDS011;18325;52.018;4.726;2022-08-19T19:01:43;4.03;;;2.88;;
31754;SDS011;18325;52.018;4.726;2022-08-19T19:03:53;6.07;;;3.13;;
31754;SDS011;18325;52.018;4.726;2022-08-19T19:06:22;4.38;;;3.25;;
31754;SDS011;18325;52.018;4.726;2022-08-19T19:08:50;4.22;;;3.13;;
31754;SDS011;18325;52.018;4.726;2022-08-19T19:11:20;4.32;;;3.30;;
31754;SDS011;18325;52.018;4.726;2022-08-19T19:14:24;48.40;;;28.65;;
31754;SDS011;18325;52.018;4.726;2022-08-19T19:16:56;15.63;;;10.50;;
31754;SDS011;18325;52.018;4.726;2022-08-19T19:19:33;4.53;;;3.60;;
31754;SDS011;18325;52.018;4.726;2022-08-19T19:24:48;6.97;;;3.20;;
31754;SDS011;18325;52.018;4.726;2022-08-19T19:27:16;6.50;;;3.83;;
31754;SDS011;18325;52.018;4.726;2022-08-19T19:29:46;6.03;;;3.72;;
31754;SDS011;18325;52.018;4.726;2022-08-19T19:32:17;8.10;;;3.83;;
31754;SDS011;18325;52.018;4.726;2022-08-19T19:37:33;5.57;;;3.78;;
31754;SDS011;18325;52.018;4.726;2022-08-19T19:40:02;6.18;;;3.70;;
31754;SDS011;18325;52.018;4.726;2022-08-19T19:42:45;10.68;;;3.90;;
31754;SDS011;18325;52.018;4.726;2022-08-19T19:48:02;8.25;;;3.35;;
31754;SDS011;18325;52.018;4.726;2022-08-19T19:50:29;3.95;;;3.13;;
31754;SDS011;18325;52.018;4.726;2022-08-19T19:52:55;4.28;;;3.40;;
31754;SDS011;18325;52.018;4.726;2022-08-19T19:55:22;5.53;;;3.22;;
31754;SDS011;18325;52.018;4.726;2022-08-19T19:57:51;6.47;;;4.07;;
31754;SDS011;18325;52.018;4.726;2022-08-19T20:10:49;5.70;;;2.85;;
31754;SDS011;18325;52.018;4.726;2022-08-19T20:13:16;6.25;;;3.03;;
31754;SDS011;18325;52.018;4.726;2022-08-19T20:15:45;3.47;;;2.55;;
31754;SDS011;18325;52.018;4.726;2022-08-19T20:18:12;4.05;;;2.90;;
31754;SDS011;18325;52.018;4.726;2022-08-19T20:20:42;3.83;;;2.42;;
31754;SDS011;18325;52.018;4.726;2022-08-19T20:23:11;4.80;;;3.25;;
31754;SDS011;18325;52.018;4.726;2022-08-19T20:25:38;4.95;;;3.00;;
31754;SDS011;18325;52.018;4.726;2022-08-19T20:28:06;3.30;;;2.85;;
31754;SDS011;18325;52.018;4.726;2022-08-19T20:30:33;4.50;;;3.00;;
31754;SDS011;18325;52.018;4.726;2022-08-19T20:32:59;7.60;;;4.35;;
31754;SDS011;18325;52.018;4.726;2022-08-19T20:35:31;4.10;;;3.33;;
31754;SDS011;18325;52.018;4.726;2022-08-19T20:37:58;5.30;;;3.47;;
31754;SDS011;18325;52.018;4.726;2022-08-19T20:40:26;7.28;;;3.42;;
31754;SDS011;18325;52.018;4.726;2022-08-19T20:42:54;6.82;;;3.50;;
31754;SDS011;18325;52.018;4.726;2022-08-19T20:45:21;3.70;;;3.10;;
31754;SDS011;18325;52.018;4.726;2022-08-19T20:47:48;4.53;;;3.33;;
31754;SDS011;18325;52.018;4.726;2022-08-19T20:50:15;5.78;;;3.58;;
31754;SDS011;18325;52.018;4.726;2022-08-19T20:52:42;5.80;;;4.00;;
31754;SDS011;18325;52.018;4.726;2022-08-19T20:55:10;6.53;;;3.88;;
31754;SDS011;18325;52.018;4.726;2022-08-19T20:57:41;6.32;;;3.45;;
31754;SDS011;18325;52.018;4.726;2022-08-19T21:00:07;5.47;;;3.63;;
31754;SDS011;18325;52.018;4.726;2022-08-19T21:02:36;5.57;;;3.20;;
31754;SDS011;18325;52.018;4.726;2022-08-19T21:05:03;5.38;;;4.03;;
31754;SDS011;18325;52.018;4.726;2022-08-19T21:07:36;5.45;;;3.63;;
31754;SDS011;18325;52.018;4.726;2022-08-19T21:10:35;4.55;;;2.88;;
31754;SDS011;18325;52.018;4.726;2022-08-19T21:13:04;5.75;;;3.47;;
31754;SDS011;18325;52.018;4.726;2022-08-19T21:15:30;4.10;;;2.78;;
31754;SDS011;18325;52.018;4.726;2022-08-19T21:17:58;5.68;;;3.05;;
31754;SDS011;18325;52.018;4.726;2022-08-19T21:20:24;6.13;;;3.47;;
31754;SDS011;18325;52.018;4.726;2022-08-19T21:22:51;7.53;;;3.15;;
31754;SDS011;18325;52.018;4.726;2022-08-19T21:25:17;3.78;;;2.92;;
31754;SDS011;18325;52.018;4.726;2022-08-19T21:27:44;4.88;;;3.20;;
31754;SDS011;18325;52.018;4.726;2022-08-19T21:30:12;5.57;;;3.22;;
31754;SDS011;18325;52.018;4.726;2022-08-19T21:32:39;4.88;;;3.00;;
31754;SDS011;18325;52.018;4.726;2022-08-19T21:35:05;5.85;;;3.60;;
31754;SDS011;18325;52.018;4.726;2022-08-19T21:37:32;3.28;;;2.85;;
31754;SDS011;18325;52.018;4.726;2022-08-19T21:40:00;4.85;;;2.90;;
31754;SDS011;18325;52.018;4.726;2022-08-19T21:42:28;6.25;;;2.67;;
31754;SDS011;18325;52.018;4.726;2022-08-19T21:44:54;5.00;;;3.03;;
31754;SDS011;18325;52.018;4.726;2022-08-19T21:47:23;2.95;;;2.60;;
31754;SDS011;18325;52.018;4.726;2022-08-19T21:49:49;4.22;;;2.90;;
31754;SDS011;18325;52.018;4.726;2022-08-19T21:52:25;8.00;;;2.90;;
31754;SDS011;18325;52.018;4.726;2022-08-19T21:54:53;5.15;;;2.92;;
31754;SDS011;18325;52.018;4.726;2022-08-19T21:57:20;4.75;;;2.90;;